createdAt,value
2023-01-25T00:01:01.895Z,28.31
2023-01-25T00:03:29.896Z,28.57
2023-01-25T00:05:57.793Z,28.52
2023-01-25T00:08:25.689Z,28.66
2023-01-25T00:10:53.572Z,28.71
2023-01-25T00:13:21.516Z,28.48
2023-01-25T00:15:49.355Z,28.43
2023-01-25T00:18:17.298Z,28.65
2023-01-25T00:20:45.181Z,28.50
2023-01-25T00:23:13.080Z,28.69
2023-01-25T00:25:41.112Z,28.68
2023-01-25T00:28:09.050Z,28.53
2023-01-25T00:30:54.251Z,28.91
2023-01-25T00:33:22.068Z,28.71
2023-01-25T00:35:50.037Z,28.74
2023-01-25T00:38:17.901Z,28.55
2023-01-25T00:40:45.781Z,28.78
2023-01-25T00:43:14.760Z,28.71
2023-01-25T00:45:42.551Z,28.67
2023-01-25T00:48:10.483Z,28.64
2023-01-25T00:50:38.253Z,28.79
2023-01-25T00:53:06.264Z,28.95
2023-01-25T00:55:34.104Z,28.71
2023-01-25T00:58:02.115Z,28.54
2023-01-25T01:00:29.937Z,28.52
2023-01-25T01:02:57.827Z,28.83
2023-01-25T01:05:25.667Z,28.82
2023-01-25T01:07:53.485Z,28.90
2023-01-25T01:10:21.317Z,28.52
2023-01-25T01:12:49.096Z,28.48
2023-01-25T01:15:34.580Z,28.93
2023-01-25T01:18:20.150Z,28.99
2023-01-25T01:20:48.173Z,29.34
2023-01-25T01:23:16.028Z,28.84
2023-01-25T01:25:43.922Z,28.85
2023-01-25T01:28:11.792Z,28.95
2023-01-25T01:30:39.649Z,28.91
2023-01-25T01:33:07.629Z,29.14
2023-01-25T01:35:35.469Z,29.03
2023-01-25T01:38:03.459Z,29.26
2023-01-25T01:40:31.552Z,29.18
2023-01-25T01:42:59.701Z,29.54
2023-01-25T01:45:27.627Z,29.31
2023-01-25T01:47:55.452Z,29.15
2023-01-25T01:50:23.319Z,29.44
2023-01-25T01:52:51.403Z,29.48
2023-01-25T01:55:19.287Z,29.07
2023-01-25T01:57:47.151Z,29.29
2023-01-25T02:00:14.995Z,29.49
2023-01-25T02:02:43.143Z,29.26
2023-01-25T02:05:11.050Z,29.26
2023-01-25T02:07:38.929Z,29.16
2023-01-25T02:10:06.768Z,29.00
2023-01-25T02:12:34.720Z,29.19
2023-01-25T02:15:02.631Z,29.44
2023-01-25T02:17:30.537Z,29.24
2023-01-25T02:19:58.391Z,29.26
2023-01-25T02:22:26.481Z,29.32
2023-01-25T02:24:54.305Z,29.43
2023-01-25T02:27:22.141Z,29.36
2023-01-25T02:29:49.981Z,29.29
2023-01-25T02:32:17.970Z,29.63
2023-01-25T02:34:45.791Z,29.53
2023-01-25T02:37:13.776Z,29.46
2023-01-25T02:39:41.860Z,29.07
2023-01-25T02:42:09.749Z,29.51
2023-01-25T02:44:37.661Z,29.13
2023-01-25T02:47:05.477Z,29.32
2023-01-25T02:49:33.359Z,29.41
2023-01-25T02:52:01.346Z,29.62
2023-01-25T02:54:29.137Z,29.35
2023-01-25T02:56:57.021Z,29.53
2023-01-25T02:59:24.900Z,29.35
2023-01-25T03:01:52.835Z,29.55
2023-01-25T03:04:20.821Z,29.95
2023-01-25T03:06:48.805Z,29.78
2023-01-25T03:09:16.661Z,29.71
2023-01-25T03:11:44.674Z,29.66
2023-01-25T03:14:12.537Z,29.79
2023-01-25T03:16:40.365Z,29.80
2023-01-25T03:19:08.194Z,29.95
2023-01-25T03:21:36.090Z,29.82
2023-01-25T03:24:04.039Z,29.81
2023-01-25T03:26:51.906Z,30.15
2023-01-25T03:29:19.876Z,30.02
2023-01-25T03:31:47.822Z,29.56
2023-01-25T03:34:15.869Z,29.90
2023-01-25T03:36:43.768Z,29.79
2023-01-25T03:39:11.590Z,29.99
2023-01-25T03:41:39.476Z,29.99
2023-01-25T03:44:07.338Z,29.71
2023-01-25T03:46:35.217Z,29.73
2023-01-25T03:49:03.067Z,29.95
2023-01-25T03:51:30.917Z,30.00
2023-01-25T03:53:58.796Z,30.10
2023-01-25T03:56:26.784Z,29.96
2023-01-25T03:58:54.616Z,29.52
2023-01-25T04:01:22.503Z,29.69
2023-01-25T04:03:50.420Z,29.59
2023-01-25T04:06:18.269Z,29.65
2023-01-25T04:08:46.074Z,29.57
2023-01-25T04:11:13.944Z,29.39
2023-01-25T04:13:41.842Z,29.58
2023-01-25T04:16:09.942Z,29.09
2023-01-25T04:18:37.876Z,29.44
2023-01-25T04:21:05.732Z,29.98
2023-01-25T04:23:33.612Z,29.22
2023-01-25T04:26:01.590Z,29.35
2023-01-25T04:28:29.489Z,29.48
2023-01-25T04:30:57.656Z,29.21
2023-01-25T04:33:25.576Z,29.60
2023-01-25T04:35:53.447Z,29.49
2023-01-25T04:38:21.423Z,29.48
2023-01-25T04:40:49.296Z,29.90
2023-01-25T04:43:17.288Z,29.60
2023-01-25T04:45:45.257Z,29.92
2023-01-25T04:48:13.454Z,30.04
2023-01-25T04:50:41.395Z,30.10
2023-01-25T04:53:09.388Z,30.03
2023-01-25T04:55:37.492Z,30.30
2023-01-25T04:58:05.292Z,30.09
2023-01-25T05:00:33.361Z,30.18
2023-01-25T05:03:01.253Z,29.99
2023-01-25T05:05:29.288Z,29.72
2023-01-25T05:07:57.390Z,29.77
2023-01-25T05:10:25.268Z,30.18
2023-01-25T05:12:53.805Z,29.89
2023-01-25T05:15:23.517Z,30.04
2023-01-25T05:17:51.591Z,30.43
2023-01-25T05:20:19.704Z,30.62
2023-01-25T05:22:48.015Z,30.54
2023-01-25T05:25:29.932Z,30.66
2023-01-25T05:27:58.002Z,30.77
2023-01-25T05:30:25.875Z,30.99
2023-01-25T05:32:53.903Z,30.97
2023-01-25T05:35:21.776Z,30.91
2023-01-25T05:37:49.622Z,31.35
2023-01-25T05:40:17.581Z,30.98
2023-01-25T05:42:45.455Z,31.22
2023-01-25T05:45:13.337Z,31.02
2023-01-25T05:47:41.249Z,31.10
2023-01-25T05:50:09.641Z,30.99
2023-01-25T05:52:37.699Z,31.11
2023-01-25T05:55:05.591Z,30.77
2023-01-25T05:57:33.459Z,30.97
2023-01-25T06:00:02.229Z,31.47
2023-01-25T06:02:30.243Z,30.77
2023-01-25T06:04:58.236Z,30.70
2023-01-25T06:07:26.269Z,31.03
2023-01-25T06:09:54.371Z,30.66
2023-01-25T06:12:22.454Z,30.88
2023-01-25T06:14:50.539Z,30.83
2023-01-25T06:17:18.493Z,31.06
2023-01-25T06:19:46.490Z,30.85
2023-01-25T06:22:14.361Z,30.70
2023-01-25T06:24:42.262Z,30.72
2023-01-25T06:27:11.034Z,30.68
2023-01-25T06:29:38.940Z,31.08
2023-01-25T06:32:06.832Z,31.18
2023-01-25T06:34:34.857Z,30.89
2023-01-25T06:37:02.882Z,30.88
2023-01-25T06:39:30.977Z,30.75
2023-01-25T06:41:59.016Z,30.76
2023-01-25T06:44:27.003Z,30.75
2023-01-25T06:46:55.548Z,30.70
2023-01-25T06:49:23.532Z,31.22
2023-01-25T06:51:51.531Z,31.22
2023-01-25T06:54:19.407Z,31.14
2023-01-25T06:56:47.327Z,31.03
2023-01-25T06:59:16.157Z,30.92
2023-01-25T07:01:44.088Z,31.21
2023-01-25T07:04:12.141Z,31.16
2023-01-25T07:06:40.133Z,31.10
2023-01-25T07:09:08.022Z,31.60
2023-01-25T07:11:36.048Z,31.39
2023-01-25T07:14:03.924Z,31.43
2023-01-25T07:16:38.673Z,31.67
2023-01-25T07:19:06.629Z,31.95
2023-01-25T07:21:34.542Z,31.53
2023-01-25T07:24:02.952Z,31.65
2023-01-25T07:26:30.869Z,31.81
2023-01-25T07:28:58.786Z,31.47
2023-01-25T07:31:26.864Z,31.63
2023-01-25T07:33:54.892Z,31.38
2023-01-25T07:36:22.797Z,31.61
2023-01-25T07:38:50.772Z,31.61
2023-01-25T07:41:18.578Z,31.86
2023-01-25T07:43:46.551Z,31.38
2023-01-25T07:46:15.656Z,31.65
2023-01-25T07:48:43.563Z,31.68
2023-01-25T07:51:22.878Z,31.41
2023-01-25T07:53:51.498Z,31.13
2023-01-25T07:56:19.537Z,31.49
2023-01-25T07:58:47.478Z,31.22
2023-01-25T08:01:15.354Z,30.96
2023-01-25T08:03:44.037Z,31.37
2023-01-25T08:06:12.329Z,31.11
2023-01-25T08:08:40.343Z,31.20
2023-01-25T08:11:08.286Z,30.69
2023-01-25T08:13:36.208Z,30.58
2023-01-25T08:16:04.306Z,31.04
2023-01-25T08:18:32.147Z,30.58
2023-01-25T08:21:00.506Z,30.82
2023-01-25T08:23:28.389Z,30.86
2023-01-25T08:25:56.476Z,30.54
2023-01-25T08:28:24.425Z,30.99
2023-01-25T08:30:57.510Z,30.84
2023-01-25T08:33:26.137Z,30.88
2023-01-25T08:35:54.226Z,31.07
2023-01-25T08:38:22.152Z,31.40
2023-01-25T08:40:49.983Z,31.44
2023-01-25T08:43:17.811Z,31.20
2023-01-25T08:45:45.650Z,31.16
2023-01-25T08:48:15.988Z,31.14
2023-01-25T08:50:44.039Z,31.56
2023-01-25T08:53:11.981Z,31.42
2023-01-25T08:55:40.630Z,31.51
2023-01-25T08:58:11.136Z,31.29
2023-01-25T09:00:38.984Z,31.23
2023-01-25T09:03:06.844Z,31.11
2023-01-25T09:05:34.685Z,31.04
2023-01-25T09:08:02.591Z,31.16
2023-01-25T09:10:30.430Z,31.11
2023-01-25T09:12:58.299Z,31.03
2023-01-25T09:15:26.174Z,30.96
2023-01-25T09:17:54.039Z,30.93
2023-01-25T09:20:21.896Z,30.45
2023-01-25T09:22:49.929Z,30.47
2023-01-25T09:25:17.829Z,30.65
2023-01-25T09:27:45.769Z,30.64
2023-01-25T09:30:18.763Z,30.68
2023-01-25T09:32:47.499Z,30.77
2023-01-25T09:35:15.371Z,30.63
2023-01-25T09:37:43.314Z,30.63
2023-01-25T09:40:11.379Z,30.75
2023-01-25T09:42:39.692Z,30.71
2023-01-25T09:45:07.735Z,30.62
2023-01-25T09:47:35.761Z,30.59
2023-01-25T09:50:03.716Z,30.53
2023-01-25T09:52:31.632Z,30.27
2023-01-25T09:54:59.575Z,30.41
2023-01-25T09:57:27.420Z,30.80
2023-01-25T09:59:55.352Z,30.70
2023-01-25T10:02:24.724Z,30.57
2023-01-25T10:04:52.668Z,30.51
2023-01-25T10:07:20.900Z,30.75
2023-01-25T10:09:48.844Z,30.74
2023-01-25T10:12:16.903Z,30.91
2023-01-25T10:14:44.773Z,30.72
2023-01-25T10:17:13.688Z,30.78
2023-01-25T10:19:41.742Z,30.25
2023-01-25T10:22:09.601Z,30.67
2023-01-25T10:24:37.441Z,30.83
2023-01-25T10:27:05.349Z,30.63
2023-01-25T10:29:33.253Z,30.72
2023-01-25T10:32:01.204Z,30.61
2023-01-25T10:34:29.248Z,31.02
2023-01-25T10:36:57.145Z,31.20
2023-01-25T10:39:25.111Z,30.88
2023-01-25T10:41:53.004Z,31.17
2023-01-25T10:44:24.696Z,31.24
2023-01-25T10:46:52.839Z,31.26
2023-01-25T10:49:20.808Z,31.12
2023-01-25T10:51:48.709Z,31.22
2023-01-25T10:54:16.595Z,31.20
2023-01-25T10:56:44.545Z,31.66
2023-01-25T10:59:12.471Z,31.25
2023-01-25T11:01:40.491Z,31.62
2023-01-25T11:04:08.478Z,31.16
2023-01-25T11:06:36.386Z,31.25
2023-01-25T11:09:04.447Z,31.61
2023-01-25T11:11:32.358Z,31.76
2023-01-25T11:14:00.235Z,31.66
2023-01-25T11:16:28.118Z,31.32
2023-01-25T11:18:55.985Z,31.54
2023-01-25T11:21:25.305Z,31.24
2023-01-25T11:23:53.372Z,31.34
2023-01-25T11:26:21.537Z,31.36
2023-01-25T11:28:49.926Z,30.89
2023-01-25T11:31:20.791Z,31.36
2023-01-25T11:33:48.858Z,30.74
2023-01-25T11:36:16.858Z,30.79
2023-01-25T11:38:44.867Z,31.00
2023-01-25T11:41:12.815Z,30.95
2023-01-25T11:43:40.878Z,31.03
2023-01-25T11:46:08.776Z,30.61
2023-01-25T11:48:36.718Z,30.91
2023-01-25T11:51:04.626Z,30.60
2023-01-25T11:53:32.596Z,30.49
2023-01-25T11:56:00.621Z,30.68
2023-01-25T11:58:28.509Z,30.67
2023-01-25T12:00:56.357Z,30.45
2023-01-25T12:03:24.256Z,30.88
2023-01-25T12:05:52.300Z,31.02
2023-01-25T12:08:20.144Z,30.80
2023-01-25T12:10:48.133Z,30.53
2023-01-25T12:13:16.026Z,30.94
2023-01-25T12:15:44.254Z,31.21
2023-01-25T12:18:13.256Z,30.55
2023-01-25T12:20:41.198Z,30.79
2023-01-25T12:23:09.088Z,30.64
2023-01-25T12:25:37.068Z,31.08
2023-01-25T12:28:05.199Z,30.54
2023-01-25T12:30:33.138Z,30.64
2023-01-25T12:33:14.012Z,30.65
2023-01-25T12:35:42.401Z,30.78
2023-01-25T12:38:10.519Z,30.86
2023-01-25T12:40:38.453Z,30.88
2023-01-25T12:43:06.293Z,30.75
2023-01-25T12:45:34.237Z,31.03
2023-01-25T12:48:02.179Z,31.45
2023-01-25T12:50:30.120Z,30.88
2023-01-25T12:52:58.042Z,30.72
2023-01-25T12:55:25.960Z,30.72
2023-01-25T12:57:54.113Z,31.31
2023-01-25T13:00:21.980Z,31.46
2023-01-25T13:02:51.064Z,31.08
2023-01-25T13:05:19.008Z,31.54
2023-01-25T13:07:47.117Z,31.11
2023-01-25T13:10:15.121Z,31.09
2023-01-25T13:12:43.442Z,31.26
2023-01-25T13:15:11.496Z,31.46
2023-01-25T13:17:40.753Z,31.43
2023-01-25T13:20:09.416Z,31.85
2023-01-25T13:22:37.443Z,31.83
2023-01-25T13:25:05.752Z,31.59
2023-01-25T13:27:35.844Z,31.40
2023-01-25T13:30:04.441Z,31.36
2023-01-25T13:32:32.358Z,31.22
2023-01-25T13:35:00.259Z,31.39
2023-01-25T13:37:29.168Z,31.23
2023-01-25T13:39:57.143Z,31.15
2023-01-25T13:42:25.499Z,31.45
2023-01-25T13:44:53.512Z,31.71
2023-01-25T13:47:21.467Z,31.68
2023-01-25T13:49:49.314Z,31.98
2023-01-25T13:52:17.209Z,31.83
2023-01-25T13:54:45.211Z,31.73
2023-01-25T13:57:14.263Z,31.93
2023-01-25T13:59:42.279Z,31.80
2023-01-25T14:02:10.222Z,31.82
2023-01-25T14:04:38.156Z,31.68
2023-01-25T14:07:10.119Z,31.68
2023-01-25T14:09:38.404Z,31.62
2023-01-25T14:12:07.042Z,31.27
2023-01-25T14:14:35.050Z,31.47
2023-01-25T14:17:03.184Z,31.25
2023-01-25T14:19:31.474Z,31.46
2023-01-25T14:21:59.446Z,30.94
2023-01-25T14:24:27.417Z,31.44
2023-01-25T14:26:55.726Z,31.25
2023-01-25T14:29:32.510Z,31.38
2023-01-25T14:32:00.979Z,31.12
2023-01-25T14:34:28.928Z,30.90
2023-01-25T14:36:57.187Z,31.34
2023-01-25T14:39:25.297Z,31.10
2023-01-25T14:42:00.948Z,31.19
2023-01-25T14:44:29.521Z,30.89
2023-01-25T14:46:57.408Z,31.47
2023-01-25T14:49:28.984Z,31.24
2023-01-25T14:51:57.006Z,31.33
2023-01-25T14:54:24.836Z,28.86
2023-01-25T14:56:53.166Z,20.74
2023-01-25T14:59:21.081Z,15.02
2023-01-25T15:01:49.003Z,12.22
2023-01-25T15:04:16.907Z,10.88
2023-01-25T15:06:45.046Z,10.26
2023-01-25T15:09:13.051Z,9.60
2023-01-25T15:11:49.084Z,8.37
2023-01-25T15:14:17.060Z,7.69
2023-01-25T15:16:45.008Z,7.25
2023-01-25T15:19:13.054Z,6.73
2023-01-25T15:21:41.050Z,6.09
2023-01-25T15:24:12.175Z,5.82
2023-01-25T15:26:40.114Z,5.54
2023-01-25T15:29:08.241Z,5.03
2023-01-25T15:31:36.154Z,5.44
2023-01-25T15:34:04.161Z,5.30
2023-01-25T15:39:23.649Z,6.01
2023-01-25T15:41:51.486Z,6.73
2023-01-25T15:44:20.463Z,7.09
2023-01-25T15:46:48.412Z,7.92
2023-01-25T15:49:16.312Z,8.79
2023-01-25T15:51:44.267Z,9.42
2023-01-25T15:54:12.355Z,10.84
2023-01-25T15:56:40.315Z,11.73
2023-01-25T15:59:08.260Z,12.36
2023-01-25T16:01:36.246Z,13.17
2023-01-25T16:04:04.096Z,14.11
2023-01-25T16:06:31.999Z,14.93
2023-01-25T16:08:59.990Z,15.71
2023-01-25T16:11:27.877Z,16.28
2023-01-25T16:13:57.008Z,17.19
2023-01-25T16:16:24.956Z,17.89
2023-01-25T16:18:52.973Z,18.20
2023-01-25T16:21:20.869Z,18.69
2023-01-25T16:23:48.802Z,19.21
2023-01-25T16:26:16.679Z,19.51
2023-01-25T16:28:44.672Z,20.34
2023-01-25T16:31:22.559Z,20.64
2023-01-25T16:33:57.960Z,20.83
2023-01-25T16:36:25.918Z,21.43
2023-01-25T16:38:53.969Z,21.86
2023-01-25T16:41:21.859Z,21.61
2023-01-25T16:43:49.766Z,22.20
2023-01-25T16:46:17.708Z,22.24
2023-01-25T16:48:45.620Z,22.59
2023-01-25T16:51:13.629Z,22.43
2023-01-25T16:53:41.538Z,20.73
2023-01-25T16:56:09.408Z,19.72
2023-01-25T16:58:37.262Z,17.30
2023-01-25T17:01:05.177Z,15.78
2023-01-25T17:03:33.090Z,13.84
2023-01-25T17:06:01.167Z,12.85
2023-01-25T17:08:29.039Z,12.31
2023-01-25T17:10:57.567Z,11.49
2023-01-25T17:13:25.507Z,11.13
2023-01-25T17:15:53.461Z,11.58
2023-01-25T17:18:21.376Z,11.88
2023-01-25T17:20:49.298Z,12.55
2023-01-25T17:23:17.245Z,13.27
2023-01-25T17:25:45.173Z,14.29
2023-01-25T17:28:13.090Z,14.64
2023-01-25T17:30:41.040Z,15.42
2023-01-25T17:33:09.691Z,16.33
2023-01-25T17:35:37.628Z,17.02
2023-01-25T17:38:05.509Z,17.63
2023-01-25T17:40:33.507Z,18.12
2023-01-25T17:43:01.335Z,18.84
2023-01-25T17:45:29.265Z,19.39
2023-01-25T17:47:57.168Z,19.77
2023-01-25T17:50:25.076Z,20.56
2023-01-25T17:52:52.898Z,21.05
2023-01-25T17:55:20.710Z,21.06
2023-01-25T17:57:48.641Z,21.56
2023-01-25T18:00:16.519Z,21.08
2023-01-25T18:02:45.137Z,20.54
2023-01-25T18:05:13.081Z,20.71
2023-01-25T18:07:41.059Z,20.60
2023-01-25T18:10:09.423Z,21.01
2023-01-25T18:12:37.704Z,21.69
2023-01-25T18:15:05.546Z,22.32
2023-01-25T18:17:35.701Z,22.41
2023-01-25T18:20:05.166Z,22.37
2023-01-25T18:22:33.136Z,22.64
2023-01-25T18:25:01.123Z,22.54
2023-01-25T18:27:28.991Z,22.90
2023-01-25T18:29:57.042Z,23.38
2023-01-25T18:32:24.961Z,23.20
2023-01-25T18:34:52.889Z,23.74
2023-01-25T18:37:21.898Z,24.02
2023-01-25T18:39:49.816Z,24.07
2023-01-25T18:42:17.728Z,24.36
2023-01-25T18:44:48.404Z,24.42
2023-01-25T18:47:18.750Z,24.69
2023-01-25T18:49:46.742Z,24.72
2023-01-25T18:52:16.096Z,20.26
2023-01-25T18:54:44.003Z,13.82
2023-01-25T18:57:12.147Z,10.73
2023-01-25T18:59:40.076Z,9.42
2023-01-25T19:02:07.969Z,8.75
2023-01-25T19:04:35.943Z,7.92
2023-01-25T19:07:04.175Z,7.36
2023-01-25T19:09:32.099Z,6.88
2023-01-25T19:12:00.012Z,6.24
2023-01-25T19:14:27.860Z,6.49
2023-01-25T19:16:55.795Z,6.36
2023-01-25T19:19:23.729Z,7.24
2023-01-25T19:24:43.788Z,8.72
2023-01-25T19:27:11.700Z,9.25
2023-01-25T19:29:39.656Z,10.39
2023-01-25T19:32:07.684Z,10.77
2023-01-25T19:34:35.595Z,12.13
2023-01-25T19:37:03.476Z,12.76
2023-01-25T19:39:31.317Z,13.35
2023-01-25T19:41:59.228Z,14.30
2023-01-25T19:44:27.122Z,14.76
2023-01-25T19:46:55.035Z,15.60
2023-01-25T19:49:23.810Z,16.03
2023-01-25T19:51:53.858Z,17.24
2023-01-25T19:54:21.927Z,17.86
2023-01-25T19:56:49.908Z,18.22
2023-01-25T19:59:17.887Z,19.05
2023-01-25T20:01:46.431Z,19.15
2023-01-25T20:04:14.601Z,19.98
2023-01-25T20:06:42.550Z,20.70
2023-01-25T20:09:10.461Z,21.11
2023-01-25T20:11:38.602Z,21.09
2023-01-25T20:14:06.703Z,21.96
2023-01-25T20:16:34.608Z,22.50
2023-01-25T20:19:02.468Z,22.62
2023-01-25T20:21:31.081Z,23.20
2023-01-25T20:24:00.565Z,22.62
2023-01-25T20:26:28.525Z,22.55
2023-01-25T20:28:56.581Z,23.08
2023-01-25T20:31:24.486Z,23.34
2023-01-25T20:33:53.153Z,22.80
2023-01-25T20:36:21.184Z,23.45
2023-01-25T20:38:49.093Z,23.89
2023-01-25T20:41:17.029Z,23.79
2023-01-25T20:43:44.881Z,24.46
2023-01-25T20:46:12.918Z,24.37
2023-01-25T20:48:40.850Z,24.35
2023-01-25T20:51:09.849Z,24.63
2023-01-25T20:53:37.814Z,24.85
2023-01-25T20:56:05.652Z,25.05
2023-01-25T20:58:33.539Z,24.72
2023-01-25T21:01:01.499Z,24.95
2023-01-25T21:03:30.203Z,24.95
2023-01-25T21:05:58.158Z,25.59
2023-01-25T21:08:26.081Z,25.24
2023-01-25T21:10:53.881Z,25.38
2023-01-25T21:13:21.772Z,25.60
2023-01-25T21:15:49.776Z,25.59
2023-01-25T21:18:17.739Z,25.80
2023-01-25T21:20:45.574Z,26.16
2023-01-25T21:23:13.447Z,26.18
2023-01-25T21:25:41.341Z,25.93
2023-01-25T21:28:09.223Z,26.26
2023-01-25T21:30:37.159Z,26.13
2023-01-25T21:33:05.018Z,26.54
2023-01-25T21:35:32.844Z,26.56
2023-01-25T21:38:00.966Z,26.63
2023-01-25T21:40:30.576Z,26.26
2023-01-25T21:42:58.727Z,26.59
2023-01-25T21:45:44.368Z,27.16
2023-01-25T21:48:12.240Z,27.05
2023-01-25T21:50:57.501Z,27.04
2023-01-25T21:53:25.347Z,27.00
2023-01-25T21:55:53.186Z,26.99
2023-01-25T21:58:21.060Z,27.50
2023-01-25T22:00:48.927Z,27.23
2023-01-25T22:03:16.792Z,27.66
2023-01-25T22:05:44.629Z,27.51
2023-01-25T22:08:12.491Z,27.52
2023-01-25T22:10:40.329Z,27.44
2023-01-25T22:13:08.342Z,27.43
2023-01-25T22:15:36.189Z,27.51
2023-01-25T22:18:04.218Z,28.07
2023-01-25T22:20:32.042Z,27.93
2023-01-25T22:22:59.896Z,28.13
2023-01-25T22:25:27.898Z,27.94
2023-01-25T22:27:59.018Z,28.11
2023-01-25T22:30:26.893Z,28.16
2023-01-25T22:32:54.843Z,28.07
2023-01-25T22:35:22.704Z,28.46
2023-01-25T22:37:50.603Z,28.37
2023-01-25T22:40:18.449Z,28.20
2023-01-25T22:42:46.316Z,28.26
2023-01-25T22:45:14.260Z,28.44
2023-01-25T22:47:42.159Z,28.33
2023-01-25T22:50:10.334Z,28.54
2023-01-25T22:52:38.481Z,28.46
2023-01-25T22:55:06.365Z,28.65
2023-01-25T22:57:34.160Z,28.95
2023-01-25T23:00:02.107Z,28.46
2023-01-25T23:02:30.154Z,28.78
2023-01-25T23:04:58.023Z,28.58
2023-01-25T23:07:25.968Z,29.06
2023-01-25T23:09:54.188Z,29.06
2023-01-25T23:12:22.130Z,28.96
2023-01-25T23:14:52.984Z,29.03
2023-01-25T23:17:38.553Z,29.23
2023-01-25T23:20:06.513Z,29.11
2023-01-25T23:22:34.386Z,29.05
2023-01-25T23:25:02.289Z,29.07
2023-01-25T23:27:30.296Z,28.92
2023-01-25T23:29:58.216Z,29.08
2023-01-25T23:32:26.026Z,29.00
2023-01-25T23:34:54.367Z,29.41
2023-01-25T23:37:22.986Z,29.13
2023-01-25T23:39:51.751Z,29.27
2023-01-25T23:42:19.633Z,29.46
2023-01-25T23:44:47.513Z,29.28
2023-01-25T23:47:15.427Z,29.46
2023-01-25T23:49:43.264Z,29.35
2023-01-25T23:52:11.166Z,29.60
2023-01-25T23:54:39.030Z,29.09
2023-01-25T23:57:06.917Z,29.68
2023-01-25T23:59:34.828Z,29.31
